createdAt,value
2023-04-03T00:03:23.279Z,64.52
2023-04-03T00:08:24.705Z,64.20
2023-04-03T00:13:26.151Z,63.68
2023-04-03T00:18:27.542Z,63.46
2023-04-03T00:23:28.995Z,63.13
2023-04-03T00:28:32.518Z,63.15
2023-04-03T00:33:33.884Z,63.31
2023-04-03T00:38:35.608Z,63.37
2023-04-03T00:43:37.598Z,63.79
2023-04-03T00:48:47.965Z,63.15
2023-04-03T00:53:57.681Z,63.63
2023-04-03T00:59:07.146Z,63.23
2023-04-03T01:04:37.857Z,63.27
2023-04-03T01:09:40.481Z,63.66
2023-04-03T01:14:42.331Z,64.03
2023-04-03T01:19:53.989Z,63.35
2023-04-03T01:24:55.430Z,63.42
2023-04-03T01:29:58.764Z,63.83
2023-04-03T01:35:00.190Z,64.23
2023-04-03T01:40:01.588Z,63.42
2023-04-03T01:45:03.599Z,63.63
2023-04-03T01:50:05.278Z,64.73
2023-04-03T01:55:07.224Z,63.83
2023-04-03T02:00:09.869Z,64.31
2023-04-03T02:05:11.454Z,63.66
2023-04-03T02:10:13.281Z,64.18
2023-04-03T02:15:14.743Z,64.70
2023-04-03T02:20:16.190Z,64.22
2023-04-03T02:25:18.672Z,64.78
2023-04-03T02:30:20.348Z,64.64
2023-04-03T02:35:21.729Z,64.31
2023-04-03T02:40:23.110Z,64.89
2023-04-03T02:45:24.437Z,64.81
2023-04-03T02:50:25.812Z,64.88
2023-04-03T02:55:27.228Z,65.03
2023-04-03T03:00:28.736Z,64.06
2023-04-03T03:05:31.238Z,63.08
2023-04-03T03:10:32.597Z,63.53
2023-04-03T03:15:33.966Z,63.38
2023-04-03T03:20:35.617Z,62.96
2023-04-03T03:25:43.061Z,62.12
2023-04-03T03:30:44.406Z,62.40
2023-04-03T03:35:46.365Z,62.23
2023-04-03T03:40:49.614Z,62.37
2023-04-03T03:45:54.816Z,62.04
2023-04-03T03:50:56.175Z,62.39
2023-04-03T03:55:57.653Z,62.19
2023-04-03T04:01:03.320Z,62.13
2023-04-03T04:06:05.048Z,61.91
2023-04-03T04:11:06.859Z,62.36
2023-04-03T04:16:09.126Z,62.60
2023-04-03T04:21:10.742Z,62.23
2023-04-03T04:26:12.093Z,62.50
2023-04-03T04:31:13.486Z,62.69
2023-04-03T04:36:15.816Z,62.84
2023-04-03T04:41:18.642Z,62.67
2023-04-03T04:46:20.295Z,62.68
2023-04-03T04:51:21.840Z,62.57
2023-04-03T04:56:23.214Z,63.05
2023-04-03T05:01:24.768Z,63.05
2023-04-03T05:06:26.231Z,62.60
2023-04-03T05:11:27.859Z,63.25
2023-04-03T05:16:29.339Z,63.16
2023-04-03T05:21:33.336Z,63.58
2023-04-03T05:26:34.968Z,63.60
2023-04-03T05:31:36.477Z,63.27
2023-04-03T05:36:37.877Z,63.44
2023-04-03T05:41:39.405Z,62.97
2023-04-03T05:46:40.758Z,63.34
2023-04-03T05:51:42.507Z,63.38
2023-04-03T05:56:43.922Z,63.31
2023-04-03T06:01:45.469Z,64.03
2023-04-03T06:06:52.951Z,63.70
2023-04-03T06:11:54.401Z,63.96
2023-04-03T06:16:56.080Z,63.45
2023-04-03T06:21:57.758Z,63.35
2023-04-03T06:26:59.550Z,63.49
2023-04-03T06:32:00.889Z,63.37
2023-04-03T06:37:02.352Z,63.18
2023-04-03T06:42:03.744Z,63.44
2023-04-03T06:47:05.506Z,63.32
2023-04-03T06:52:06.928Z,62.97
2023-04-03T06:57:08.737Z,63.06
2023-04-03T07:02:12.515Z,63.17
2023-04-03T07:07:14.094Z,62.82
2023-04-03T07:12:15.994Z,62.39
2023-04-03T07:17:17.395Z,63.15
2023-04-03T07:22:18.857Z,62.35
2023-04-03T07:27:20.526Z,62.66
2023-04-03T07:32:21.860Z,62.68
2023-04-03T07:37:23.388Z,61.93
2023-04-03T07:42:24.747Z,61.68
2023-04-03T07:47:26.146Z,61.78
2023-04-03T07:52:27.501Z,60.90
2023-04-03T07:57:28.927Z,61.36
2023-04-03T08:02:30.337Z,61.00
2023-04-03T08:07:31.753Z,59.90
2023-04-03T08:12:33.274Z,60.38
2023-04-03T08:17:35.633Z,59.44
2023-04-03T08:22:37.040Z,59.65
2023-04-03T08:27:38.873Z,58.54
2023-04-03T08:32:42.797Z,58.35
2023-04-03T08:37:44.206Z,58.53
2023-04-03T08:42:57.814Z,57.54
2023-04-03T08:48:13.040Z,57.22
2023-04-03T08:53:22.407Z,56.53
2023-04-03T08:58:30.290Z,56.41
2023-04-03T09:03:34.179Z,55.75
2023-04-03T09:08:46.734Z,55.85
2023-04-03T09:14:33.087Z,55.56
2023-04-03T09:19:45.571Z,55.09
2023-04-03T09:24:53.274Z,54.66
2023-04-03T09:29:57.279Z,54.48
2023-04-03T09:35:19.085Z,53.51
2023-04-03T09:40:25.815Z,52.98
2023-04-03T09:45:29.336Z,53.34
2023-04-03T09:50:31.356Z,52.88
2023-04-03T09:55:32.708Z,52.89
2023-04-03T10:00:37.096Z,52.08
2023-04-03T10:05:42.017Z,51.83
2023-04-03T10:10:46.482Z,51.64
2023-04-03T10:16:04.162Z,50.82
2023-04-03T10:21:26.684Z,50.53
2023-04-03T10:26:46.427Z,49.74
2023-04-03T10:32:26.836Z,49.10
2023-04-03T10:37:37.680Z,48.44
2023-04-03T10:43:00.904Z,47.54
2023-04-03T10:48:18.215Z,46.90
2023-04-03T10:53:38.738Z,45.73
2023-04-03T10:58:44.746Z,44.96
2023-04-03T11:03:56.615Z,44.17
2023-04-03T11:09:07.694Z,43.85
2023-04-03T11:14:17.155Z,43.06
2023-04-03T11:19:24.942Z,42.47
2023-04-03T11:24:30.681Z,41.60
2023-04-03T11:29:39.155Z,40.70
2023-04-03T11:34:44.245Z,40.64
2023-04-03T11:39:57.782Z,40.50
2023-04-03T11:45:30.814Z,39.71
2023-04-03T11:50:42.138Z,39.83
2023-04-03T11:55:49.639Z,39.32
2023-04-03T12:00:58.907Z,38.69
2023-04-03T12:06:12.445Z,38.01
2023-04-03T12:11:13.971Z,37.99
2023-04-03T12:16:30.074Z,38.58
2023-04-03T12:21:37.378Z,37.60
2023-04-03T12:27:00.154Z,37.11
2023-04-03T12:32:08.412Z,36.35
2023-04-03T12:37:22.738Z,35.37
2023-04-03T12:42:26.836Z,34.72
2023-04-03T12:47:38.853Z,34.73
2023-04-03T12:52:48.532Z,35.19
2023-04-03T12:57:50.042Z,34.66
2023-04-03T13:02:51.553Z,34.20
2023-04-03T13:08:00.992Z,33.73
2023-04-03T13:13:10.198Z,33.22
2023-04-03T13:18:29.925Z,33.37
2023-04-03T13:23:32.537Z,33.71
2023-04-03T13:28:35.207Z,33.25
2023-04-03T13:33:40.832Z,32.76
2023-04-03T13:38:42.315Z,32.44
2023-04-03T13:43:43.744Z,32.02
2023-04-03T13:48:48.165Z,31.80
2023-04-03T13:53:57.787Z,31.38
2023-04-03T13:59:22.040Z,31.37
2023-04-03T14:04:28.487Z,31.11
2023-04-03T14:09:30.689Z,31.08
2023-04-03T14:14:34.700Z,30.95
2023-04-03T14:19:36.666Z,31.30
2023-04-03T14:24:39.442Z,30.67
2023-04-03T14:29:40.798Z,30.54
2023-04-03T14:34:43.773Z,30.64
2023-04-03T14:39:46.200Z,30.38
2023-04-03T14:44:47.889Z,29.54
2023-04-03T14:49:49.306Z,27.89
2023-04-03T14:54:51.988Z,27.21
2023-04-03T14:59:53.515Z,26.14
2023-04-03T15:04:56.419Z,25.72
2023-04-03T15:09:58.130Z,26.52
2023-04-03T15:15:02.048Z,27.10
2023-04-03T15:20:14.048Z,27.30
2023-04-03T15:25:16.303Z,28.07
2023-04-03T15:30:19.767Z,27.00
2023-04-03T15:35:21.266Z,26.90
2023-04-03T15:40:22.680Z,27.57
2023-04-03T15:45:24.280Z,28.04
2023-04-03T15:50:25.921Z,28.40
2023-04-03T15:55:29.617Z,28.47
2023-04-03T16:00:33.088Z,28.35
2023-04-03T16:05:36.561Z,28.66
2023-04-03T16:10:39.244Z,28.96
2023-04-03T16:15:41.372Z,29.27
2023-04-03T16:20:44.596Z,29.19
2023-04-03T16:25:47.183Z,29.20
2023-04-03T16:30:50.083Z,29.50
2023-04-03T16:35:52.860Z,29.70
2023-04-03T16:40:57.450Z,30.61
2023-04-03T16:45:58.991Z,29.74
2023-04-03T16:51:00.749Z,30.00
2023-04-03T16:56:02.159Z,30.07
2023-04-03T17:01:13.837Z,30.25
2023-04-03T17:06:20.937Z,31.08
2023-04-03T17:11:22.564Z,31.43
2023-04-03T17:16:25.197Z,31.55
2023-04-03T17:21:27.337Z,32.16
2023-04-03T17:26:29.466Z,32.16
2023-04-03T17:31:31.030Z,32.36
2023-04-03T17:36:33.871Z,32.80
2023-04-03T17:41:35.529Z,33.21
2023-04-03T17:46:36.932Z,33.85
2023-04-03T17:51:38.331Z,34.43
2023-04-03T17:56:39.887Z,35.55
2023-04-03T18:01:44.186Z,35.71
2023-04-03T18:06:48.831Z,36.28
2023-04-03T18:11:51.877Z,36.26
2023-04-03T18:16:53.496Z,36.44
2023-04-03T18:22:01.974Z,36.71
2023-04-03T18:27:09.962Z,36.83
2023-04-03T18:32:14.374Z,37.39
2023-04-03T18:37:16.364Z,37.48
2023-04-03T18:42:21.394Z,37.49
2023-04-03T18:47:23.116Z,37.59
2023-04-03T18:52:25.493Z,38.43
2023-04-03T18:57:26.903Z,38.36
2023-04-03T19:02:28.645Z,38.32
2023-04-03T19:07:30.147Z,39.13
2023-04-03T19:12:31.691Z,39.38
2023-04-03T19:17:33.061Z,39.50
2023-04-03T19:22:34.800Z,39.44
2023-04-03T19:27:37.236Z,39.69
2023-04-03T19:32:38.744Z,40.45
2023-04-03T19:37:40.463Z,40.65
2023-04-03T19:42:42.951Z,40.61
2023-04-03T19:47:45.025Z,40.96
2023-04-03T19:52:46.570Z,40.97
2023-04-03T19:57:49.914Z,41.62
2023-04-03T20:02:51.496Z,41.65
2023-04-03T20:07:53.110Z,42.41
2023-04-03T20:12:54.672Z,41.92
2023-04-03T20:17:57.390Z,42.63
2023-04-03T20:22:59.262Z,42.62
2023-04-03T20:28:00.758Z,43.49
2023-04-03T20:33:03.857Z,43.32
2023-04-03T20:38:07.162Z,43.32
2023-04-03T20:43:09.109Z,43.60
2023-04-03T20:48:13.112Z,43.82
2023-04-03T20:53:17.855Z,44.74
2023-04-03T20:58:19.819Z,44.52
2023-04-03T21:03:23.287Z,44.69
2023-04-03T21:09:02.276Z,44.67
2023-04-03T21:14:42.335Z,44.56
2023-04-03T21:19:46.399Z,44.66
2023-04-03T21:24:48.380Z,45.05
2023-04-03T21:29:50.342Z,45.71
2023-04-03T21:34:51.690Z,45.57
2023-04-03T21:39:53.186Z,45.35
2023-04-03T21:44:54.657Z,45.46
2023-04-03T21:49:56.485Z,45.50
2023-04-03T21:54:57.864Z,46.06
2023-04-03T21:59:59.447Z,45.88
2023-04-03T22:05:01.551Z,46.48
2023-04-03T22:10:03.229Z,46.40
2023-04-03T22:15:05.736Z,46.68
2023-04-03T22:20:08.057Z,46.81
2023-04-03T22:25:10.217Z,46.62
2023-04-03T22:30:12.045Z,46.98
2023-04-03T22:35:13.468Z,47.24
2023-04-03T22:40:14.954Z,47.41
2023-04-03T22:45:16.459Z,47.62
2023-04-03T22:50:17.793Z,47.36
2023-04-03T22:55:19.902Z,47.70
2023-04-03T23:00:21.482Z,47.78
2023-04-03T23:05:22.908Z,47.79
2023-04-03T23:10:24.286Z,48.03
2023-04-03T23:15:25.783Z,48.09
2023-04-03T23:20:27.121Z,48.11
2023-04-03T23:25:28.447Z,48.16
2023-04-03T23:30:29.837Z,48.43
2023-04-03T23:35:31.985Z,48.19
2023-04-03T23:40:33.351Z,48.62
2023-04-03T23:45:34.804Z,48.34
2023-04-03T23:50:37.193Z,49.18
2023-04-03T23:55:38.864Z,48.72
